sensor_id;sensor_type;location;lat;lon;timestamp;P1;durP1;ratioP1;P2;durP2;ratioP2
64816;SDS011;53289;45.602;11.904;2022-10-24T00:01:50;16.60;;;10.00;;
64816;SDS011;53289;45.602;11.904;2022-10-24T00:04:16;14.40;;;8.60;;
64816;SDS011;53289;45.602;11.904;2022-10-24T00:06:42;15.38;;;9.00;;
64816;SDS011;53289;45.602;11.904;2022-10-24T00:09:08;16.75;;;9.18;;
64816;SDS011;53289;45.602;11.904;2022-10-24T00:11:35;13.05;;;8.98;;
64816;SDS011;53289;45.602;11.904;2022-10-24T00:14:02;17.70;;;10.80;;
64816;SDS011;53289;45.602;11.904;2022-10-24T00:16:28;23.90;;;11.27;;
64816;SDS011;53289;45.602;11.904;2022-10-24T00:18:55;18.05;;;10.43;;
64816;SDS011;53289;45.602;11.904;2022-10-24T00:21:21;16.35;;;9.60;;
64816;SDS011;53289;45.602;11.904;2022-10-24T00:23:47;18.00;;;9.27;;
64816;SDS011;53289;45.602;11.904;2022-10-24T00:26:13;12.07;;;7.82;;
64816;SDS011;53289;45.602;11.904;2022-10-24T00:28:41;15.02;;;8.85;;
64816;SDS011;53289;45.602;11.904;2022-10-24T00:31:07;11.73;;;8.30;;
64816;SDS011;53289;45.602;11.904;2022-10-24T00:33:37;14.07;;;8.57;;
64816;SDS011;53289;45.602;11.904;2022-10-24T00:36:03;13.48;;;8.70;;
64816;SDS011;53289;45.602;11.904;2022-10-24T00:38:29;16.95;;;10.20;;
64816;SDS011;53289;45.602;11.904;2022-10-24T00:40:55;17.48;;;10.32;;
64816;SDS011;53289;45.602;11.904;2022-10-24T00:43:22;19.17;;;9.65;;
64816;SDS011;53289;45.602;11.904;2022-10-24T00:45:53;17.13;;;9.88;;
64816;SDS011;53289;45.602;11.904;2022-10-24T00:48:29;16.67;;;9.70;;
64816;SDS011;53289;45.602;11.904;2022-10-24T00:51:06;14.15;;;9.50;;
64816;SDS011;53289;45.602;11.904;2022-10-24T00:53:41;17.48;;;9.93;;
64816;SDS011;53289;45.602;11.904;2022-10-24T00:56:10;15.13;;;10.10;;
64816;SDS011;53289;45.602;11.904;2022-10-24T00:58:39;14.68;;;9.27;;
64816;SDS011;53289;45.602;11.904;2022-10-24T01:01:09;14.68;;;9.10;;
64816;SDS011;53289;45.602;11.904;2022-10-24T01:03:36;12.70;;;8.68;;
64816;SDS011;53289;45.602;11.904;2022-10-24T01:22:18;19.45;;;10.35;;
64816;SDS011;53289;45.602;11.904;2022-10-24T01:30:09;16.13;;;10.00;;
64816;SDS011;53289;45.602;11.904;2022-10-24T01:32:48;13.75;;;8.13;;
64816;SDS011;53289;45.602;11.904;2022-10-24T01:38:11;14.25;;;9.30;;
64816;SDS011;53289;45.602;11.904;2022-10-24T01:40:56;14.40;;;9.52;;
64816;SDS011;53289;45.602;11.904;2022-10-24T01:43:33;14.88;;;8.75;;
64816;SDS011;53289;45.602;11.904;2022-10-24T01:46:08;21.92;;;11.88;;
64816;SDS011;53289;45.602;11.904;2022-10-24T01:48:40;14.88;;;9.35;;
64816;SDS011;53289;45.602;11.904;2022-10-24T01:51:14;17.42;;;11.13;;
64816;SDS011;53289;45.602;11.904;2022-10-24T01:53:42;25.17;;;13.88;;
64816;SDS011;53289;45.602;11.904;2022-10-24T01:56:09;20.67;;;11.52;;
64816;SDS011;53289;45.602;11.904;2022-10-24T01:58:35;30.67;;;15.18;;
64816;SDS011;53289;45.602;11.904;2022-10-24T02:01:03;32.88;;;16.08;;
64816;SDS011;53289;45.602;11.904;2022-10-24T02:03:39;28.40;;;14.02;;
64816;SDS011;53289;45.602;11.904;2022-10-24T02:06:10;24.27;;;12.82;;
64816;SDS011;53289;45.602;11.904;2022-10-24T02:08:51;30.15;;;16.38;;
64816;SDS011;53289;45.602;11.904;2022-10-24T02:11:23;28.95;;;14.75;;
64816;SDS011;53289;45.602;11.904;2022-10-24T02:16:16;21.35;;;12.13;;
64816;SDS011;53289;45.602;11.904;2022-10-24T02:18:45;17.88;;;11.43;;
64816;SDS011;53289;45.602;11.904;2022-10-24T02:21:34;29.80;;;15.27;;
64816;SDS011;53289;45.602;11.904;2022-10-24T02:24:23;23.60;;;12.45;;
64816;SDS011;53289;45.602;11.904;2022-10-24T02:27:08;37.13;;;15.20;;
64816;SDS011;53289;45.602;11.904;2022-10-24T02:29:43;23.77;;;12.73;;
64816;SDS011;53289;45.602;11.904;2022-10-24T02:32:13;23.67;;;12.13;;
64816;SDS011;53289;45.602;11.904;2022-10-24T02:34:44;20.92;;;12.05;;
64816;SDS011;53289;45.602;11.904;2022-10-24T02:37:12;21.25;;;11.77;;
64816;SDS011;53289;45.602;11.904;2022-10-24T02:39:40;23.80;;;13.23;;
64816;SDS011;53289;45.602;11.904;2022-10-24T02:42:08;30.88;;;15.75;;
64816;SDS011;53289;45.602;11.904;2022-10-24T02:44:37;22.25;;;11.75;;
64816;SDS011;53289;45.602;11.904;2022-10-24T02:47:05;25.17;;;12.07;;
64816;SDS011;53289;45.602;11.904;2022-10-24T02:49:35;21.95;;;11.13;;
64816;SDS011;53289;45.602;11.904;2022-10-24T02:52:01;21.42;;;12.38;;
64816;SDS011;53289;45.602;11.904;2022-10-24T02:54:28;20.88;;;10.85;;
64816;SDS011;53289;45.602;11.904;2022-10-24T02:56:55;22.90;;;10.60;;
64816;SDS011;53289;45.602;11.904;2022-10-24T02:59:24;20.30;;;11.50;;
64816;SDS011;53289;45.602;11.904;2022-10-24T03:01:51;26.02;;;12.15;;
64816;SDS011;53289;45.602;11.904;2022-10-24T03:04:17;24.90;;;13.55;;
64816;SDS011;53289;45.602;11.904;2022-10-24T03:06:43;19.83;;;11.75;;
64816;SDS011;53289;45.602;11.904;2022-10-24T03:09:09;20.77;;;11.48;;
64816;SDS011;53289;45.602;11.904;2022-10-24T03:11:35;16.10;;;10.20;;
64816;SDS011;53289;45.602;11.904;2022-10-24T03:14:01;17.48;;;10.80;;
64816;SDS011;53289;45.602;11.904;2022-10-24T03:16:27;18.58;;;10.50;;
64816;SDS011;53289;45.602;11.904;2022-10-24T03:18:53;19.50;;;11.35;;
64816;SDS011;53289;45.602;11.904;2022-10-24T03:21:20;17.83;;;10.93;;
64816;SDS011;53289;45.602;11.904;2022-10-24T03:23:46;16.67;;;9.50;;
64816;SDS011;53289;45.602;11.904;2022-10-24T03:26:12;23.90;;;12.30;;
64816;SDS011;53289;45.602;11.904;2022-10-24T03:28:38;20.05;;;10.63;;
64816;SDS011;53289;45.602;11.904;2022-10-24T03:31:04;22.80;;;11.32;;
64816;SDS011;53289;45.602;11.904;2022-10-24T03:33:31;22.58;;;12.77;;
64816;SDS011;53289;45.602;11.904;2022-10-24T03:35:58;20.27;;;11.48;;
64816;SDS011;53289;45.602;11.904;2022-10-24T03:38:24;18.90;;;9.82;;
64816;SDS011;53289;45.602;11.904;2022-10-24T03:40:50;23.67;;;13.30;;
64816;SDS011;53289;45.602;11.904;2022-10-24T03:43:16;19.77;;;10.73;;
64816;SDS011;53289;45.602;11.904;2022-10-24T03:45:43;21.40;;;11.10;;
64816;SDS011;53289;45.602;11.904;2022-10-24T03:48:09;18.73;;;11.60;;
64816;SDS011;53289;45.602;11.904;2022-10-24T03:50:36;18.90;;;10.27;;
64816;SDS011;53289;45.602;11.904;2022-10-24T03:53:02;21.08;;;10.48;;
64816;SDS011;53289;45.602;11.904;2022-10-24T03:55:29;15.77;;;9.25;;
64816;SDS011;53289;45.602;11.904;2022-10-24T03:57:55;19.60;;;10.57;;
64816;SDS011;53289;45.602;11.904;2022-10-24T04:00:21;22.70;;;12.88;;
64816;SDS011;53289;45.602;11.904;2022-10-24T04:02:47;18.27;;;10.98;;
64816;SDS011;53289;45.602;11.904;2022-10-24T04:05:15;23.08;;;12.02;;
64816;SDS011;53289;45.602;11.904;2022-10-24T04:07:42;19.73;;;10.70;;
64816;SDS011;53289;45.602;11.904;2022-10-24T04:10:08;17.23;;;10.45;;
64816;SDS011;53289;45.602;11.904;2022-10-24T04:12:34;21.98;;;12.48;;
64816;SDS011;53289;45.602;11.904;2022-10-24T04:15:00;23.33;;;12.50;;
64816;SDS011;53289;45.602;11.904;2022-10-24T04:17:26;22.15;;;11.00;;
64816;SDS011;53289;45.602;11.904;2022-10-24T04:19:52;19.67;;;11.73;;
64816;SDS011;53289;45.602;11.904;2022-10-24T04:22:18;23.67;;;13.98;;
64816;SDS011;53289;45.602;11.904;2022-10-24T04:24:44;21.00;;;12.75;;
64816;SDS011;53289;45.602;11.904;2022-10-24T04:27:10;21.33;;;12.52;;
64816;SDS011;53289;45.602;11.904;2022-10-24T04:29:36;22.55;;;13.93;;
64816;SDS011;53289;45.602;11.904;2022-10-24T04:32:02;21.48;;;12.40;;
64816;SDS011;53289;45.602;11.904;2022-10-24T04:34:29;20.02;;;11.40;;
64816;SDS011;53289;45.602;11.904;2022-10-24T04:36:54;20.27;;;11.55;;
64816;SDS011;53289;45.602;11.904;2022-10-24T04:39:21;22.00;;;11.27;;
64816;SDS011;53289;45.602;11.904;2022-10-24T04:41:46;20.50;;;11.38;;
64816;SDS011;53289;45.602;11.904;2022-10-24T04:44:12;17.95;;;10.73;;
64816;SDS011;53289;45.602;11.904;2022-10-24T04:46:38;16.20;;;10.15;;
64816;SDS011;53289;45.602;11.904;2022-10-24T04:49:04;17.30;;;9.38;;
64816;SDS011;53289;45.602;11.904;2022-10-24T04:51:30;15.68;;;9.88;;
64816;SDS011;53289;45.602;11.904;2022-10-24T04:53:56;15.77;;;10.10;;
64816;SDS011;53289;45.602;11.904;2022-10-24T04:56:22;19.38;;;11.52;;
64816;SDS011;53289;45.602;11.904;2022-10-24T04:58:50;17.02;;;11.05;;
64816;SDS011;53289;45.602;11.904;2022-10-24T05:01:16;16.40;;;9.98;;
64816;SDS011;53289;45.602;11.904;2022-10-24T05:03:42;18.17;;;10.10;;
64816;SDS011;53289;45.602;11.904;2022-10-24T05:06:08;18.33;;;10.80;;
64816;SDS011;53289;45.602;11.904;2022-10-24T05:08:39;21.92;;;11.40;;
64816;SDS011;53289;45.602;11.904;2022-10-24T05:11:06;16.52;;;10.32;;
64816;SDS011;53289;45.602;11.904;2022-10-24T05:13:35;14.13;;;8.63;;
64816;SDS011;53289;45.602;11.904;2022-10-24T05:16:03;18.45;;;10.65;;
64816;SDS011;53289;45.602;11.904;2022-10-24T05:18:30;18.65;;;10.73;;
64816;SDS011;53289;45.602;11.904;2022-10-24T05:20:57;20.40;;;11.10;;
64816;SDS011;53289;45.602;11.904;2022-10-24T05:23:24;19.38;;;10.73;;
64816;SDS011;53289;45.602;11.904;2022-10-24T05:25:51;21.35;;;12.85;;
64816;SDS011;53289;45.602;11.904;2022-10-24T05:28:17;27.17;;;14.70;;
64816;SDS011;53289;45.602;11.904;2022-10-24T05:30:43;21.33;;;12.80;;
64816;SDS011;53289;45.602;11.904;2022-10-24T05:33:09;23.77;;;11.32;;
64816;SDS011;53289;45.602;11.904;2022-10-24T05:35:36;19.33;;;11.40;;
64816;SDS011;53289;45.602;11.904;2022-10-24T05:38:02;21.10;;;11.85;;
64816;SDS011;53289;45.602;11.904;2022-10-24T05:40:28;21.88;;;10.65;;
64816;SDS011;53289;45.602;11.904;2022-10-24T05:42:54;20.05;;;11.13;;
64816;SDS011;53289;45.602;11.904;2022-10-24T05:45:20;18.83;;;11.07;;
64816;SDS011;53289;45.602;11.904;2022-10-24T05:47:46;20.38;;;11.77;;
64816;SDS011;53289;45.602;11.904;2022-10-24T05:50:12;22.05;;;11.23;;
64816;SDS011;53289;45.602;11.904;2022-10-24T05:52:38;19.13;;;11.25;;
64816;SDS011;53289;45.602;11.904;2022-10-24T05:55:07;18.48;;;10.60;;
64816;SDS011;53289;45.602;11.904;2022-10-24T05:57:37;19.58;;;11.02;;
64816;SDS011;53289;45.602;11.904;2022-10-24T06:00:07;19.55;;;11.07;;
64816;SDS011;53289;45.602;11.904;2022-10-24T06:02:35;19.38;;;10.55;;
64816;SDS011;53289;45.602;11.904;2022-10-24T06:05:01;15.85;;;10.15;;
64816;SDS011;53289;45.602;11.904;2022-10-24T06:07:27;19.00;;;11.18;;
64816;SDS011;53289;45.602;11.904;2022-10-24T06:09:54;17.95;;;11.18;;
64816;SDS011;53289;45.602;11.904;2022-10-24T06:12:20;17.17;;;10.82;;
64816;SDS011;53289;45.602;11.904;2022-10-24T06:14:46;19.80;;;11.02;;
64816;SDS011;53289;45.602;11.904;2022-10-24T06:17:12;17.85;;;11.05;;
64816;SDS011;53289;45.602;11.904;2022-10-24T06:19:38;19.90;;;11.18;;
64816;SDS011;53289;45.602;11.904;2022-10-24T06:22:05;17.60;;;10.55;;
64816;SDS011;53289;45.602;11.904;2022-10-24T06:24:35;17.70;;;11.30;;
64816;SDS011;53289;45.602;11.904;2022-10-24T06:27:02;18.10;;;11.18;;
64816;SDS011;53289;45.602;11.904;2022-10-24T06:29:29;17.77;;;10.80;;
64816;SDS011;53289;45.602;11.904;2022-10-24T06:31:56;17.60;;;10.10;;
64816;SDS011;53289;45.602;11.904;2022-10-24T06:34:22;18.05;;;10.95;;
64816;SDS011;53289;45.602;11.904;2022-10-24T06:36:49;22.08;;;11.90;;
64816;SDS011;53289;45.602;11.904;2022-10-24T06:39:15;19.90;;;11.43;;
64816;SDS011;53289;45.602;11.904;2022-10-24T06:41:41;20.75;;;11.52;;
64816;SDS011;53289;45.602;11.904;2022-10-24T06:44:07;15.90;;;10.68;;
64816;SDS011;53289;45.602;11.904;2022-10-24T06:46:33;21.50;;;11.20;;
64816;SDS011;53289;45.602;11.904;2022-10-24T06:48:59;18.83;;;10.98;;
64816;SDS011;53289;45.602;11.904;2022-10-24T06:51:25;22.77;;;12.10;;
64816;SDS011;53289;45.602;11.904;2022-10-24T06:53:51;18.60;;;11.63;;
64816;SDS011;53289;45.602;11.904;2022-10-24T06:56:17;25.65;;;13.27;;
64816;SDS011;53289;45.602;11.904;2022-10-24T06:58:43;21.30;;;12.65;;
64816;SDS011;53289;45.602;11.904;2022-10-24T07:01:10;23.08;;;13.85;;
64816;SDS011;53289;45.602;11.904;2022-10-24T07:03:39;27.83;;;17.52;;
64816;SDS011;53289;45.602;11.904;2022-10-24T07:06:24;38.28;;;23.45;;
64816;SDS011;53289;45.602;11.904;2022-10-24T07:08:54;27.45;;;16.95;;
64816;SDS011;53289;45.602;11.904;2022-10-24T07:11:21;35.53;;;23.58;;
64816;SDS011;53289;45.602;11.904;2022-10-24T07:13:47;26.20;;;14.93;;
64816;SDS011;53289;45.602;11.904;2022-10-24T07:16:13;26.88;;;15.00;;
64816;SDS011;53289;45.602;11.904;2022-10-24T07:18:40;24.45;;;14.18;;
64816;SDS011;53289;45.602;11.904;2022-10-24T07:21:08;24.83;;;12.35;;
64816;SDS011;53289;45.602;11.904;2022-10-24T07:23:38;29.33;;;14.52;;
64816;SDS011;53289;45.602;11.904;2022-10-24T07:26:05;27.00;;;14.75;;
64816;SDS011;53289;45.602;11.904;2022-10-24T07:28:33;19.88;;;12.48;;
64816;SDS011;53289;45.602;11.904;2022-10-24T07:31:00;25.08;;;14.23;;
64816;SDS011;53289;45.602;11.904;2022-10-24T07:33:27;17.60;;;11.57;;
64816;SDS011;53289;45.602;11.904;2022-10-24T07:35:54;22.17;;;12.00;;
64816;SDS011;53289;45.602;11.904;2022-10-24T07:38:20;23.25;;;13.43;;
64816;SDS011;53289;45.602;11.904;2022-10-24T07:40:46;18.40;;;11.88;;
64816;SDS011;53289;45.602;11.904;2022-10-24T07:43:12;21.70;;;12.50;;
64816;SDS011;53289;45.602;11.904;2022-10-24T07:45:39;19.50;;;11.65;;
64816;SDS011;53289;45.602;11.904;2022-10-24T07:48:06;21.95;;;13.23;;
64816;SDS011;53289;45.602;11.904;2022-10-24T07:50:33;18.77;;;11.60;;
64816;SDS011;53289;45.602;11.904;2022-10-24T07:52:59;28.15;;;13.65;;
64816;SDS011;53289;45.602;11.904;2022-10-24T07:55:25;20.48;;;11.88;;
64816;SDS011;53289;45.602;11.904;2022-10-24T07:57:52;24.75;;;13.70;;
64816;SDS011;53289;45.602;11.904;2022-10-24T08:00:17;19.73;;;12.43;;
64816;SDS011;53289;45.602;11.904;2022-10-24T08:02:43;24.20;;;13.27;;
64816;SDS011;53289;45.602;11.904;2022-10-24T08:05:09;24.35;;;13.00;;
64816;SDS011;53289;45.602;11.904;2022-10-24T08:07:36;21.45;;;13.75;;
64816;SDS011;53289;45.602;11.904;2022-10-24T08:10:02;20.40;;;12.05;;
64816;SDS011;53289;45.602;11.904;2022-10-24T08:12:30;20.88;;;13.27;;
64816;SDS011;53289;45.602;11.904;2022-10-24T08:14:55;18.60;;;12.30;;
64816;SDS011;53289;45.602;11.904;2022-10-24T08:17:21;22.58;;;11.70;;
64816;SDS011;53289;45.602;11.904;2022-10-24T08:19:49;25.67;;;14.65;;
64816;SDS011;53289;45.602;11.904;2022-10-24T08:22:15;22.20;;;13.20;;
64816;SDS011;53289;45.602;11.904;2022-10-24T08:24:42;22.35;;;12.82;;
64816;SDS011;53289;45.602;11.904;2022-10-24T08:27:08;28.67;;;15.02;;
64816;SDS011;53289;45.602;11.904;2022-10-24T08:29:35;26.10;;;14.18;;
64816;SDS011;53289;45.602;11.904;2022-10-24T08:32:00;24.00;;;12.50;;
64816;SDS011;53289;45.602;11.904;2022-10-24T08:34:27;21.58;;;13.15;;
64816;SDS011;53289;45.602;11.904;2022-10-24T08:36:52;26.67;;;15.57;;
64816;SDS011;53289;45.602;11.904;2022-10-24T08:39:18;30.42;;;16.63;;
64816;SDS011;53289;45.602;11.904;2022-10-24T08:41:49;27.23;;;16.40;;
64816;SDS011;53289;45.602;11.904;2022-10-24T08:44:24;32.30;;;17.88;;
64816;SDS011;53289;45.602;11.904;2022-10-24T08:49:37;27.58;;;16.80;;
64816;SDS011;53289;45.602;11.904;2022-10-24T08:52:14;28.05;;;15.98;;
64816;SDS011;53289;45.602;11.904;2022-10-24T08:54:47;32.90;;;18.27;;
64816;SDS011;53289;45.602;11.904;2022-10-24T08:57:25;28.42;;;16.30;;
64816;SDS011;53289;45.602;11.904;2022-10-24T08:59:54;36.97;;;18.70;;
64816;SDS011;53289;45.602;11.904;2022-10-24T09:02:24;27.33;;;17.17;;
64816;SDS011;53289;45.602;11.904;2022-10-24T09:04:56;30.90;;;17.15;;
64816;SDS011;53289;45.602;11.904;2022-10-24T09:07:28;34.25;;;17.83;;
64816;SDS011;53289;45.602;11.904;2022-10-24T09:10:00;41.53;;;20.33;;
64816;SDS011;53289;45.602;11.904;2022-10-24T09:12:37;36.13;;;18.80;;
64816;SDS011;53289;45.602;11.904;2022-10-24T09:15:07;37.63;;;18.38;;
64816;SDS011;53289;45.602;11.904;2022-10-24T09:17:48;27.73;;;15.73;;
64816;SDS011;53289;45.602;11.904;2022-10-24T09:20:29;27.88;;;15.88;;
64816;SDS011;53289;45.602;11.904;2022-10-24T09:22:59;28.65;;;15.40;;
64816;SDS011;53289;45.602;11.904;2022-10-24T09:25:31;23.75;;;15.00;;
64816;SDS011;53289;45.602;11.904;2022-10-24T09:28:00;26.17;;;14.63;;
64816;SDS011;53289;45.602;11.904;2022-10-24T09:30:28;30.70;;;17.33;;
64816;SDS011;53289;45.602;11.904;2022-10-24T09:32:55;27.98;;;16.35;;
64816;SDS011;53289;45.602;11.904;2022-10-24T09:35:24;27.52;;;14.93;;
64816;SDS011;53289;45.602;11.904;2022-10-24T09:37:53;25.50;;;15.40;;
64816;SDS011;53289;45.602;11.904;2022-10-24T09:40:22;29.75;;;16.35;;
64816;SDS011;53289;45.602;11.904;2022-10-24T09:42:51;26.17;;;16.27;;
64816;SDS011;53289;45.602;11.904;2022-10-24T09:48:24;31.67;;;17.10;;
64816;SDS011;53289;45.602;11.904;2022-10-24T09:51:09;38.72;;;20.15;;
64816;SDS011;53289;45.602;11.904;2022-10-24T09:56:36;34.08;;;19.27;;
64816;SDS011;53289;45.602;11.904;2022-10-24T10:04:37;38.65;;;20.10;;
64816;SDS011;53289;45.602;11.904;2022-10-24T10:07:07;36.75;;;20.98;;
64816;SDS011;53289;45.602;11.904;2022-10-24T10:09:35;37.13;;;20.60;;
64816;SDS011;53289;45.602;11.904;2022-10-24T10:12:22;42.28;;;22.70;;
64816;SDS011;53289;45.602;11.904;2022-10-24T10:15:18;35.50;;;20.30;;
64816;SDS011;53289;45.602;11.904;2022-10-24T10:17:59;30.20;;;19.52;;
64816;SDS011;53289;45.602;11.904;2022-10-24T10:31:18;35.30;;;18.85;;
64816;SDS011;53289;45.602;11.904;2022-10-24T10:36:22;31.15;;;18.33;;
64816;SDS011;53289;45.602;11.904;2022-10-24T10:50:41;31.63;;;19.13;;
64816;SDS011;53289;45.602;11.904;2022-10-24T10:53:22;25.92;;;16.38;;
64816;SDS011;53289;45.602;11.904;2022-10-24T10:58:41;23.40;;;14.85;;
64816;SDS011;53289;45.602;11.904;2022-10-24T11:01:24;26.33;;;15.43;;
64816;SDS011;53289;45.602;11.904;2022-10-24T11:04:22;24.83;;;15.30;;
64816;SDS011;53289;45.602;11.904;2022-10-24T11:07:09;21.73;;;14.60;;
64816;SDS011;53289;45.602;11.904;2022-10-24T11:10:10;33.05;;;19.15;;
64816;SDS011;53289;45.602;11.904;2022-10-24T11:12:41;25.02;;;15.00;;
64816;SDS011;53289;45.602;11.904;2022-10-24T11:20:25;25.52;;;16.30;;
64816;SDS011;53289;45.602;11.904;2022-10-24T11:22:57;26.92;;;15.70;;
64816;SDS011;53289;45.602;11.904;2022-10-24T11:28:09;25.17;;;15.70;;
64816;SDS011;53289;45.602;11.904;2022-10-24T11:31:00;26.80;;;17.00;;
64816;SDS011;53289;45.602;11.904;2022-10-24T11:33:46;25.50;;;15.95;;
64816;SDS011;53289;45.602;11.904;2022-10-24T11:36:44;28.70;;;16.05;;
64816;SDS011;53289;45.602;11.904;2022-10-24T11:39:19;21.83;;;14.77;;
64816;SDS011;53289;45.602;11.904;2022-10-24T11:52:47;31.48;;;18.33;;
64816;SDS011;53289;45.602;11.904;2022-10-24T11:55:23;22.33;;;15.27;;
64816;SDS011;53289;45.602;11.904;2022-10-24T11:57:58;24.73;;;15.63;;
64816;SDS011;53289;45.602;11.904;2022-10-24T12:01:14;22.38;;;14.25;;
64816;SDS011;53289;45.602;11.904;2022-10-24T12:03:55;21.90;;;15.00;;
64816;SDS011;53289;45.602;11.904;2022-10-24T12:18:10;20.85;;;13.70;;
64816;SDS011;53289;45.602;11.904;2022-10-24T12:20:38;26.52;;;15.07;;
64816;SDS011;53289;45.602;11.904;2022-10-24T12:23:05;20.63;;;14.18;;
64816;SDS011;53289;45.602;11.904;2022-10-24T12:25:41;22.38;;;13.82;;
64816;SDS011;53289;45.602;11.904;2022-10-24T12:28:18;22.80;;;14.57;;
64816;SDS011;53289;45.602;11.904;2022-10-24T12:33:32;23.95;;;13.63;;
64816;SDS011;53289;45.602;11.904;2022-10-24T12:35:58;22.25;;;13.52;;
64816;SDS011;53289;45.602;11.904;2022-10-24T12:40:57;26.08;;;14.45;;
64816;SDS011;53289;45.602;11.904;2022-10-24T12:45:57;22.92;;;13.73;;
64816;SDS011;53289;45.602;11.904;2022-10-24T12:48:40;25.73;;;14.75;;
64816;SDS011;53289;45.602;11.904;2022-10-24T12:56:36;22.33;;;14.30;;
64816;SDS011;53289;45.602;11.904;2022-10-24T13:23:38;19.10;;;12.23;;
64816;SDS011;53289;45.602;11.904;2022-10-24T13:26:07;26.15;;;15.05;;
64816;SDS011;53289;45.602;11.904;2022-10-24T13:31:46;24.15;;;13.60;;
64816;SDS011;53289;45.602;11.904;2022-10-24T13:34:18;21.48;;;12.93;;
64816;SDS011;53289;45.602;11.904;2022-10-24T13:37:11;23.60;;;14.57;;
64816;SDS011;53289;45.602;11.904;2022-10-24T13:39:51;19.98;;;13.13;;
64816;SDS011;53289;45.602;11.904;2022-10-24T13:42:32;21.20;;;12.88;;
64816;SDS011;53289;45.602;11.904;2022-10-24T13:45:05;24.60;;;12.20;;
64816;SDS011;53289;45.602;11.904;2022-10-24T13:47:44;19.70;;;11.73;;
64816;SDS011;53289;45.602;11.904;2022-10-24T13:52:51;21.13;;;11.90;;
64816;SDS011;53289;45.602;11.904;2022-10-24T13:55:29;21.80;;;11.73;;
64816;SDS011;53289;45.602;11.904;2022-10-24T13:58:00;16.92;;;11.32;;
64816;SDS011;53289;45.602;11.904;2022-10-24T14:00:30;19.75;;;11.20;;
64816;SDS011;53289;45.602;11.904;2022-10-24T14:03:01;19.95;;;11.27;;
64816;SDS011;53289;45.602;11.904;2022-10-24T14:08:41;15.98;;;10.43;;
64816;SDS011;53289;45.602;11.904;2022-10-24T14:11:11;20.70;;;10.73;;
64816;SDS011;53289;45.602;11.904;2022-10-24T14:14:16;16.75;;;10.88;;
64816;SDS011;53289;45.602;11.904;2022-10-24T14:17:03;18.27;;;10.75;;
64816;SDS011;53289;45.602;11.904;2022-10-24T14:19:32;16.58;;;10.30;;
64816;SDS011;53289;45.602;11.904;2022-10-24T14:22:00;14.27;;;10.25;;
64816;SDS011;53289;45.602;11.904;2022-10-24T14:24:29;18.50;;;11.70;;
64816;SDS011;53289;45.602;11.904;2022-10-24T14:26:56;16.60;;;10.93;;
64816;SDS011;53289;45.602;11.904;2022-10-24T14:29:27;19.90;;;11.48;;
64816;SDS011;53289;45.602;11.904;2022-10-24T14:32:04;16.40;;;10.25;;
64816;SDS011;53289;45.602;11.904;2022-10-24T14:34:32;17.15;;;10.38;;
64816;SDS011;53289;45.602;11.904;2022-10-24T14:37:04;14.35;;;10.10;;
64816;SDS011;53289;45.602;11.904;2022-10-24T14:39:39;17.00;;;10.77;;
64816;SDS011;53289;45.602;11.904;2022-10-24T14:42:06;15.23;;;10.52;;
64816;SDS011;53289;45.602;11.904;2022-10-24T14:44:41;19.65;;;10.55;;
64816;SDS011;53289;45.602;11.904;2022-10-24T14:47:23;21.33;;;12.48;;
64816;SDS011;53289;45.602;11.904;2022-10-24T14:49:52;17.10;;;11.83;;
64816;SDS011;53289;45.602;11.904;2022-10-24T14:57:27;17.48;;;13.00;;
64816;SDS011;53289;45.602;11.904;2022-10-24T14:59:55;18.85;;;12.98;;
64816;SDS011;53289;45.602;11.904;2022-10-24T15:02:30;21.48;;;12.93;;
64816;SDS011;53289;45.602;11.904;2022-10-24T15:07:45;17.77;;;12.40;;
64816;SDS011;53289;45.602;11.904;2022-10-24T15:12:46;20.80;;;13.52;;
64816;SDS011;53289;45.602;11.904;2022-10-24T15:17:59;20.85;;;11.07;;
64816;SDS011;53289;45.602;11.904;2022-10-24T15:20:43;15.55;;;11.40;;
64816;SDS011;53289;45.602;11.904;2022-10-24T15:25:45;19.05;;;10.98;;
64816;SDS011;53289;45.602;11.904;2022-10-24T15:28:41;16.05;;;11.77;;
64816;SDS011;53289;45.602;11.904;2022-10-24T15:31:12;16.23;;;11.27;;
64816;SDS011;53289;45.602;11.904;2022-10-24T15:33:39;20.35;;;11.82;;
64816;SDS011;53289;45.602;11.904;2022-10-24T15:36:06;15.77;;;11.10;;
64816;SDS011;53289;45.602;11.904;2022-10-24T15:38:39;13.93;;;10.77;;
64816;SDS011;53289;45.602;11.904;2022-10-24T15:41:05;16.38;;;10.95;;
64816;SDS011;53289;45.602;11.904;2022-10-24T15:43:31;13.43;;;10.52;;
64816;SDS011;53289;45.602;11.904;2022-10-24T15:45:57;15.13;;;11.23;;
64816;SDS011;53289;45.602;11.904;2022-10-24T15:48:23;15.73;;;11.80;;
64816;SDS011;53289;45.602;11.904;2022-10-24T15:50:49;18.05;;;11.52;;
64816;SDS011;53289;45.602;11.904;2022-10-24T15:53:16;19.27;;;11.60;;
64816;SDS011;53289;45.602;11.904;2022-10-24T15:55:46;16.05;;;11.35;;
64816;SDS011;53289;45.602;11.904;2022-10-24T15:58:12;17.85;;;11.68;;
64816;SDS011;53289;45.602;11.904;2022-10-24T16:00:40;16.20;;;11.40;;
64816;SDS011;53289;45.602;11.904;2022-10-24T16:03:06;16.95;;;11.70;;
64816;SDS011;53289;45.602;11.904;2022-10-24T16:05:37;14.35;;;10.50;;
64816;SDS011;53289;45.602;11.904;2022-10-24T16:08:05;14.23;;;10.32;;
64816;SDS011;53289;45.602;11.904;2022-10-24T16:10:35;16.67;;;11.50;;
64816;SDS011;53289;45.602;11.904;2022-10-24T16:13:01;16.00;;;11.00;;
64816;SDS011;53289;45.602;11.904;2022-10-24T16:15:28;23.70;;;13.20;;
64816;SDS011;53289;45.602;11.904;2022-10-24T16:17:57;16.13;;;11.23;;
64816;SDS011;53289;45.602;11.904;2022-10-24T16:20:23;19.08;;;12.02;;
64816;SDS011;53289;45.602;11.904;2022-10-24T16:22:50;17.77;;;12.00;;
64816;SDS011;53289;45.602;11.904;2022-10-24T16:25:25;19.13;;;11.40;;
64816;SDS011;53289;45.602;11.904;2022-10-24T16:27:54;13.45;;;10.07;;
64816;SDS011;53289;45.602;11.904;2022-10-24T16:30:22;12.63;;;9.68;;
64816;SDS011;53289;45.602;11.904;2022-10-24T16:32:49;15.15;;;10.55;;
64816;SDS011;53289;45.602;11.904;2022-10-24T16:35:19;15.20;;;8.98;;
64816;SDS011;53289;45.602;11.904;2022-10-24T16:37:50;16.40;;;10.43;;
64816;SDS011;53289;45.602;11.904;2022-10-24T16:40:17;15.23;;;10.90;;
64816;SDS011;53289;45.602;11.904;2022-10-24T16:42:43;17.80;;;10.35;;
64816;SDS011;53289;45.602;11.904;2022-10-24T16:45:09;15.98;;;10.20;;
64816;SDS011;53289;45.602;11.904;2022-10-24T16:47:36;17.83;;;11.70;;
64816;SDS011;53289;45.602;11.904;2022-10-24T16:50:02;17.00;;;10.93;;
64816;SDS011;53289;45.602;11.904;2022-10-24T16:52:28;14.98;;;11.00;;
64816;SDS011;53289;45.602;11.904;2022-10-24T16:54:54;17.15;;;12.35;;
64816;SDS011;53289;45.602;11.904;2022-10-24T16:57:20;16.88;;;12.02;;
64816;SDS011;53289;45.602;11.904;2022-10-24T16:59:48;19.23;;;13.38;;
64816;SDS011;53289;45.602;11.904;2022-10-24T17:02:15;17.40;;;11.73;;
64816;SDS011;53289;45.602;11.904;2022-10-24T17:04:42;19.50;;;11.45;;
64816;SDS011;53289;45.602;11.904;2022-10-24T17:07:11;15.13;;;11.25;;
64816;SDS011;53289;45.602;11.904;2022-10-24T17:09:38;19.85;;;12.93;;